sensor_id;sensor_type;location;lat;lon;timestamp;temperature;humidity
5457;DHT22;2751;49.802;9.944;2022-11-15T00:01:31;8.30;99.90
5457;DHT22;2751;49.802;9.944;2022-11-15T00:03:58;8.70;99.90
5457;DHT22;2751;49.802;9.944;2022-11-15T00:06:27;8.40;99.90
5457;DHT22;2751;49.802;9.944;2022-11-15T00:08:58;8.40;99.90
5457;DHT22;2751;49.802;9.944;2022-11-15T00:11:25;8.40;99.90
5457;DHT22;2751;49.802;9.944;2022-11-15T00:13:55;8.40;99.90
5457;DHT22;2751;49.802;9.944;2022-11-15T00:16:22;8.40;99.90
5457;DHT22;2751;49.802;9.944;2022-11-15T00:18:49;8.40;99.90
5457;DHT22;2751;49.802;9.944;2022-11-15T00:21:17;8.40;99.90
5457;DHT22;2751;49.802;9.944;2022-11-15T00:23:45;8.40;99.90
5457;DHT22;2751;49.802;9.944;2022-11-15T00:26:13;8.40;99.90
5457;DHT22;2751;49.802;9.944;2022-11-15T00:28:41;8.40;99.90
5457;DHT22;2751;49.802;9.944;2022-11-15T00:31:12;8.40;99.90
5457;DHT22;2751;49.802;9.944;2022-11-15T00:33:43;8.40;99.90
5457;DHT22;2751;49.802;9.944;2022-11-15T00:36:10;8.60;99.90
5457;DHT22;2751;49.802;9.944;2022-11-15T00:38:38;8.70;99.90
5457;DHT22;2751;49.802;9.944;2022-11-15T00:41:08;8.30;99.90
5457;DHT22;2751;49.802;9.944;2022-11-15T00:43:35;8.30;99.90
5457;DHT22;2751;49.802;9.944;2022-11-15T00:46:02;8.50;99.90
5457;DHT22;2751;49.802;9.944;2022-11-15T00:48:29;8.70;99.90
5457;DHT22;2751;49.802;9.944;2022-11-15T00:50:57;8.40;99.90
5457;DHT22;2751;49.802;9.944;2022-11-15T00:53:24;8.40;99.90
5457;DHT22;2751;49.802;9.944;2022-11-15T00:55:51;8.40;99.90
5457;DHT22;2751;49.802;9.944;2022-11-15T00:58:19;8.50;99.90
5457;DHT22;2751;49.802;9.944;2022-11-15T01:00:46;8.50;99.90
5457;DHT22;2751;49.802;9.944;2022-11-15T01:03:13;8.40;99.90
5457;DHT22;2751;49.802;9.944;2022-11-15T01:05:40;8.50;99.90
5457;DHT22;2751;49.802;9.944;2022-11-15T01:08:12;8.80;99.90
5457;DHT22;2751;49.802;9.944;2022-11-15T01:10:39;8.50;99.90
5457;DHT22;2751;49.802;9.944;2022-11-15T01:13:05;8.50;99.90
5457;DHT22;2751;49.802;9.944;2022-11-15T01:15:34;8.50;99.90
5457;DHT22;2751;49.802;9.944;2022-11-15T01:18:01;8.50;99.90
5457;DHT22;2751;49.802;9.944;2022-11-15T01:20:27;8.50;99.90
5457;DHT22;2751;49.802;9.944;2022-11-15T01:22:54;8.40;99.90
5457;DHT22;2751;49.802;9.944;2022-11-15T01:25:21;8.50;99.90
5457;DHT22;2751;49.802;9.944;2022-11-15T01:27:48;8.50;99.90
5457;DHT22;2751;49.802;9.944;2022-11-15T01:30:15;8.50;99.90
5457;DHT22;2751;49.802;9.944;2022-11-15T01:32:43;8.50;99.90
5457;DHT22;2751;49.802;9.944;2022-11-15T01:35:10;8.50;99.90
5457;DHT22;2751;49.802;9.944;2022-11-15T01:37:37;8.60;99.90
5457;DHT22;2751;49.802;9.944;2022-11-15T01:40:05;8.50;99.90
5457;DHT22;2751;49.802;9.944;2022-11-15T01:42:32;8.50;99.90
5457;DHT22;2751;49.802;9.944;2022-11-15T01:44:59;8.50;99.90
5457;DHT22;2751;49.802;9.944;2022-11-15T01:47:28;8.40;99.90
5457;DHT22;2751;49.802;9.944;2022-11-15T01:50:00;8.40;99.90
5457;DHT22;2751;49.802;9.944;2022-11-15T01:52:29;8.40;99.90
5457;DHT22;2751;49.802;9.944;2022-11-15T01:55:02;8.40;99.90
5457;DHT22;2751;49.802;9.944;2022-11-15T01:57:31;8.70;99.90
5457;DHT22;2751;49.802;9.944;2022-11-15T01:59:59;8.80;99.90
5457;DHT22;2751;49.802;9.944;2022-11-15T02:02:27;8.50;99.90
5457;DHT22;2751;49.802;9.944;2022-11-15T02:04:54;8.50;99.90
5457;DHT22;2751;49.802;9.944;2022-11-15T02:07:22;8.50;99.90
5457;DHT22;2751;49.802;9.944;2022-11-15T02:09:50;8.90;99.90
5457;DHT22;2751;49.802;9.944;2022-11-15T02:12:19;8.60;99.90
5457;DHT22;2751;49.802;9.944;2022-11-15T02:14:50;8.90;99.90
5457;DHT22;2751;49.802;9.944;2022-11-15T02:17:43;8.60;99.90
5457;DHT22;2751;49.802;9.944;2022-11-15T02:20:46;8.60;99.90
5457;DHT22;2751;49.802;9.944;2022-11-15T02:26:43;8.50;99.90
5457;DHT22;2751;49.802;9.944;2022-11-15T02:29:22;8.50;99.90
5457;DHT22;2751;49.802;9.944;2022-11-15T02:31:58;8.40;99.90
5457;DHT22;2751;49.802;9.944;2022-11-15T02:34:33;8.40;99.90
5457;DHT22;2751;49.802;9.944;2022-11-15T02:37:09;8.30;99.90
5457;DHT22;2751;49.802;9.944;2022-11-15T02:39:41;8.30;99.90
5457;DHT22;2751;49.802;9.944;2022-11-15T02:42:13;8.40;99.90
5457;DHT22;2751;49.802;9.944;2022-11-15T02:44:57;8.20;99.90
5457;DHT22;2751;49.802;9.944;2022-11-15T02:47:29;8.10;99.90
5457;DHT22;2751;49.802;9.944;2022-11-15T02:50:00;8.20;99.90
5457;DHT22;2751;49.802;9.944;2022-11-15T02:52:27;8.00;99.90
5457;DHT22;2751;49.802;9.944;2022-11-15T02:54:55;8.00;99.90
5457;DHT22;2751;49.802;9.944;2022-11-15T02:57:33;7.90;99.90
5457;DHT22;2751;49.802;9.944;2022-11-15T03:00:06;7.70;99.90
5457;DHT22;2751;49.802;9.944;2022-11-15T03:02:58;7.70;99.90
5457;DHT22;2751;49.802;9.944;2022-11-15T03:05:35;7.70;99.90
5457;DHT22;2751;49.802;9.944;2022-11-15T03:08:08;7.60;99.90
5457;DHT22;2751;49.802;9.944;2022-11-15T03:10:42;7.60;99.90
5457;DHT22;2751;49.802;9.944;2022-11-15T03:13:21;7.80;99.90
5457;DHT22;2751;49.802;9.944;2022-11-15T03:15:55;7.50;99.90
5457;DHT22;2751;49.802;9.944;2022-11-15T03:18:29;7.50;99.90
5457;DHT22;2751;49.802;9.944;2022-11-15T03:21:00;7.40;99.90
5457;DHT22;2751;49.802;9.944;2022-11-15T03:23:29;7.40;99.90
5457;DHT22;2751;49.802;9.944;2022-11-15T03:25:58;7.30;99.90
5457;DHT22;2751;49.802;9.944;2022-11-15T03:28:29;7.60;99.90
5457;DHT22;2751;49.802;9.944;2022-11-15T03:31:01;7.30;99.90
5457;DHT22;2751;49.802;9.944;2022-11-15T03:33:51;7.70;99.90
5457;DHT22;2751;49.802;9.944;2022-11-15T03:36:22;7.20;99.90
5457;DHT22;2751;49.802;9.944;2022-11-15T03:38:53;7.20;99.90
5457;DHT22;2751;49.802;9.944;2022-11-15T03:41:23;7.10;99.90
5457;DHT22;2751;49.802;9.944;2022-11-15T03:43:56;7.10;99.90
5457;DHT22;2751;49.802;9.944;2022-11-15T03:46:27;7.10;99.90
5457;DHT22;2751;49.802;9.944;2022-11-15T03:49:05;7.00;99.90
5457;DHT22;2751;49.802;9.944;2022-11-15T03:51:32;7.20;99.90
5457;DHT22;2751;49.802;9.944;2022-11-15T03:53:59;6.90;99.90
5457;DHT22;2751;49.802;9.944;2022-11-15T03:56:28;6.90;99.90
5457;DHT22;2751;49.802;9.944;2022-11-15T03:58:55;6.80;99.90
5457;DHT22;2751;49.802;9.944;2022-11-15T04:01:22;6.80;99.90
5457;DHT22;2751;49.802;9.944;2022-11-15T04:03:49;6.80;99.90
5457;DHT22;2751;49.802;9.944;2022-11-15T04:06:18;6.70;99.90
5457;DHT22;2751;49.802;9.944;2022-11-15T04:08:45;6.70;99.90
5457;DHT22;2751;49.802;9.944;2022-11-15T04:11:12;6.70;99.90
5457;DHT22;2751;49.802;9.944;2022-11-15T04:13:39;6.60;99.90
5457;DHT22;2751;49.802;9.944;2022-11-15T04:16:06;6.60;99.90
5457;DHT22;2751;49.802;9.944;2022-11-15T04:18:33;6.60;99.90
5457;DHT22;2751;49.802;9.944;2022-11-15T04:21:00;6.90;99.90
5457;DHT22;2751;49.802;9.944;2022-11-15T04:23:45;6.50;99.90
5457;DHT22;2751;49.802;9.944;2022-11-15T04:26:26;6.50;99.90
5457;DHT22;2751;49.802;9.944;2022-11-15T04:28:53;6.70;99.90
5457;DHT22;2751;49.802;9.944;2022-11-15T04:31:37;6.70;99.90
5457;DHT22;2751;49.802;9.944;2022-11-15T04:34:04;6.40;99.90
5457;DHT22;2751;49.802;9.944;2022-11-15T04:36:31;6.50;99.90
5457;DHT22;2751;49.802;9.944;2022-11-15T04:39:17;6.30;99.90
5457;DHT22;2751;49.802;9.944;2022-11-15T04:41:44;6.30;99.90
5457;DHT22;2751;49.802;9.944;2022-11-15T04:44:11;6.30;99.90
5457;DHT22;2751;49.802;9.944;2022-11-15T04:46:38;6.40;99.90
5457;DHT22;2751;49.802;9.944;2022-11-15T04:49:04;6.30;99.90
5457;DHT22;2751;49.802;9.944;2022-11-15T04:51:31;6.30;99.90
5457;DHT22;2751;49.802;9.944;2022-11-15T04:53:58;6.20;99.90
5457;DHT22;2751;49.802;9.944;2022-11-15T04:56:26;6.20;99.90
5457;DHT22;2751;49.802;9.944;2022-11-15T04:58:53;6.20;99.90
5457;DHT22;2751;49.802;9.944;2022-11-15T05:01:20;6.50;99.90
5457;DHT22;2751;49.802;9.944;2022-11-15T05:03:47;6.50;99.90
5457;DHT22;2751;49.802;9.944;2022-11-15T05:06:31;6.20;99.90
5457;DHT22;2751;49.802;9.944;2022-11-15T05:08:58;6.10;99.90
5457;DHT22;2751;49.802;9.944;2022-11-15T05:11:26;6.10;99.90
5457;DHT22;2751;49.802;9.944;2022-11-15T05:13:53;6.50;99.90
5457;DHT22;2751;49.802;9.944;2022-11-15T05:16:21;6.00;99.90
5457;DHT22;2751;49.802;9.944;2022-11-15T05:18:50;6.00;99.90
5457;DHT22;2751;49.802;9.944;2022-11-15T05:21:17;6.00;99.90
5457;DHT22;2751;49.802;9.944;2022-11-15T05:23:44;6.00;99.90
5457;DHT22;2751;49.802;9.944;2022-11-15T05:26:11;6.00;99.90
5457;DHT22;2751;49.802;9.944;2022-11-15T05:28:40;6.00;99.90
5457;DHT22;2751;49.802;9.944;2022-11-15T05:31:09;6.30;99.90
5457;DHT22;2751;49.802;9.944;2022-11-15T05:33:38;6.00;99.90
5457;DHT22;2751;49.802;9.944;2022-11-15T05:36:09;6.00;99.90
5457;DHT22;2751;49.802;9.944;2022-11-15T05:38:38;6.00;99.90
5457;DHT22;2751;49.802;9.944;2022-11-15T05:41:06;6.00;99.90
5457;DHT22;2751;49.802;9.944;2022-11-15T05:43:35;6.00;99.90
5457;DHT22;2751;49.802;9.944;2022-11-15T05:46:04;6.00;99.90
5457;DHT22;2751;49.802;9.944;2022-11-15T05:48:32;5.90;99.90
5457;DHT22;2751;49.802;9.944;2022-11-15T05:50:59;6.00;99.90
5457;DHT22;2751;49.802;9.944;2022-11-15T05:53:27;6.30;99.90
5457;DHT22;2751;49.802;9.944;2022-11-15T05:55:54;6.00;99.90
5457;DHT22;2751;49.802;9.944;2022-11-15T05:58:21;5.90;99.90
5457;DHT22;2751;49.802;9.944;2022-11-15T06:00:48;5.90;99.90
5457;DHT22;2751;49.802;9.944;2022-11-15T06:03:16;5.90;99.90
5457;DHT22;2751;49.802;9.944;2022-11-15T06:05:43;5.90;99.90
5457;DHT22;2751;49.802;9.944;2022-11-15T06:08:10;5.90;99.90
5457;DHT22;2751;49.802;9.944;2022-11-15T06:10:37;5.90;99.90
5457;DHT22;2751;49.802;9.944;2022-11-15T06:13:05;5.90;99.90
5457;DHT22;2751;49.802;9.944;2022-11-15T06:15:32;5.90;99.90
5457;DHT22;2751;49.802;9.944;2022-11-15T06:17:59;5.50;99.90
5457;DHT22;2751;49.802;9.944;2022-11-15T06:20:29;5.90;99.90
5457;DHT22;2751;49.802;9.944;2022-11-15T06:22:59;5.90;99.90
5457;DHT22;2751;49.802;9.944;2022-11-15T06:25:26;6.30;99.90
5457;DHT22;2751;49.802;9.944;2022-11-15T06:27:54;5.90;99.90
5457;DHT22;2751;49.802;9.944;2022-11-15T06:30:22;5.90;99.90
5457;DHT22;2751;49.802;9.944;2022-11-15T06:32:49;6.00;99.90
5457;DHT22;2751;49.802;9.944;2022-11-15T06:35:16;6.10;99.90
5457;DHT22;2751;49.802;9.944;2022-11-15T06:37:45;6.20;99.90
5457;DHT22;2751;49.802;9.944;2022-11-15T06:40:12;6.20;99.90
5457;DHT22;2751;49.802;9.944;2022-11-15T06:42:38;6.30;99.90
5457;DHT22;2751;49.802;9.944;2022-11-15T06:45:06;6.30;99.90
5457;DHT22;2751;49.802;9.944;2022-11-15T06:47:33;6.40;99.90
5457;DHT22;2751;49.802;9.944;2022-11-15T06:50:00;6.40;99.90
5457;DHT22;2751;49.802;9.944;2022-11-15T06:52:27;6.50;99.90
5457;DHT22;2751;49.802;9.944;2022-11-15T06:54:59;6.50;99.90
5457;DHT22;2751;49.802;9.944;2022-11-15T06:57:26;6.50;99.90
5457;DHT22;2751;49.802;9.944;2022-11-15T06:59:53;6.60;99.90
5457;DHT22;2751;49.802;9.944;2022-11-15T07:02:19;6.60;99.90
5457;DHT22;2751;49.802;9.944;2022-11-15T07:04:46;6.70;99.90
5457;DHT22;2751;49.802;9.944;2022-11-15T07:07:13;6.70;99.90
5457;DHT22;2751;49.802;9.944;2022-11-15T07:09:40;6.80;99.90
5457;DHT22;2751;49.802;9.944;2022-11-15T07:12:09;7.10;99.90
5457;DHT22;2751;49.802;9.944;2022-11-15T07:14:35;6.90;99.90
5457;DHT22;2751;49.802;9.944;2022-11-15T07:17:03;6.90;99.90
5457;DHT22;2751;49.802;9.944;2022-11-15T07:19:30;6.90;99.90
5457;DHT22;2751;49.802;9.944;2022-11-15T07:21:57;7.00;99.90
5457;DHT22;2751;49.802;9.944;2022-11-15T07:24:24;7.00;99.90
5457;DHT22;2751;49.802;9.944;2022-11-15T07:26:51;7.10;99.90
5457;DHT22;2751;49.802;9.944;2022-11-15T07:29:19;7.20;99.90
5457;DHT22;2751;49.802;9.944;2022-11-15T07:31:46;7.20;99.90
5457;DHT22;2751;49.802;9.944;2022-11-15T07:34:13;7.50;99.90
5457;DHT22;2751;49.802;9.944;2022-11-15T07:36:40;7.30;99.90
5457;DHT22;2751;49.802;9.944;2022-11-15T07:39:07;7.30;99.90
5457;DHT22;2751;49.802;9.944;2022-11-15T07:41:34;7.60;99.90
5457;DHT22;2751;49.802;9.944;2022-11-15T07:44:02;8.20;99.90
5457;DHT22;2751;49.802;9.944;2022-11-15T07:46:31;8.50;99.90
5457;DHT22;2751;49.802;9.944;2022-11-15T07:48:58;8.80;99.90
5457;DHT22;2751;49.802;9.944;2022-11-15T07:51:25;8.60;99.90
5457;DHT22;2751;49.802;9.944;2022-11-15T07:53:52;8.30;99.90
5457;DHT22;2751;49.802;9.944;2022-11-15T07:56:18;8.10;99.90
5457;DHT22;2751;49.802;9.944;2022-11-15T07:58:46;8.00;99.90
5457;DHT22;2751;49.802;9.944;2022-11-15T08:01:13;8.20;99.90
5457;DHT22;2751;49.802;9.944;2022-11-15T08:03:41;7.80;99.90
5457;DHT22;2751;49.802;9.944;2022-11-15T08:06:08;7.90;99.90
5457;DHT22;2751;49.802;9.944;2022-11-15T08:08:35;7.70;99.90
5457;DHT22;2751;49.802;9.944;2022-11-15T08:11:02;7.70;99.90
5457;DHT22;2751;49.802;9.944;2022-11-15T08:13:29;7.80;99.90
5457;DHT22;2751;49.802;9.944;2022-11-15T08:15:58;8.10;99.90
5457;DHT22;2751;49.802;9.944;2022-11-15T08:18:25;7.70;99.90
5457;DHT22;2751;49.802;9.944;2022-11-15T08:20:57;7.70;99.90
5457;DHT22;2751;49.802;9.944;2022-11-15T08:23:24;7.80;99.90
5457;DHT22;2751;49.802;9.944;2022-11-15T08:25:51;7.80;99.90
5457;DHT22;2751;49.802;9.944;2022-11-15T08:28:18;7.90;99.90
5457;DHT22;2751;49.802;9.944;2022-11-15T08:30:46;7.90;99.90
5457;DHT22;2751;49.802;9.944;2022-11-15T08:33:14;8.20;99.90
5457;DHT22;2751;49.802;9.944;2022-11-15T08:35:41;8.00;99.90
5457;DHT22;2751;49.802;9.944;2022-11-15T08:38:10;8.00;99.90
5457;DHT22;2751;49.802;9.944;2022-11-15T08:40:37;8.10;99.90
5457;DHT22;2751;49.802;9.944;2022-11-15T08:43:04;8.10;99.90
5457;DHT22;2751;49.802;9.944;2022-11-15T08:45:31;8.20;99.90
5457;DHT22;2751;49.802;9.944;2022-11-15T08:48:01;8.30;99.90
5457;DHT22;2751;49.802;9.944;2022-11-15T08:50:28;8.40;99.90
5457;DHT22;2751;49.802;9.944;2022-11-15T08:52:55;8.40;99.90
5457;DHT22;2751;49.802;9.944;2022-11-15T08:55:23;8.50;99.90
5457;DHT22;2751;49.802;9.944;2022-11-15T08:57:50;8.60;99.90
5457;DHT22;2751;49.802;9.944;2022-11-15T09:00:17;9.10;99.90
5457;DHT22;2751;49.802;9.944;2022-11-15T09:02:45;8.80;99.90
5457;DHT22;2751;49.802;9.944;2022-11-15T09:05:12;8.80;99.90
5457;DHT22;2751;49.802;9.944;2022-11-15T09:07:40;8.90;99.90
5457;DHT22;2751;49.802;9.944;2022-11-15T09:10:08;9.20;99.90
5457;DHT22;2751;49.802;9.944;2022-11-15T09:12:36;9.10;99.90
5457;DHT22;2751;49.802;9.944;2022-11-15T09:15:04;9.50;99.90
5457;DHT22;2751;49.802;9.944;2022-11-15T09:17:32;9.30;99.90
5457;DHT22;2751;49.802;9.944;2022-11-15T09:19:59;9.40;99.90
5457;DHT22;2751;49.802;9.944;2022-11-15T09:22:26;9.80;99.90
5457;DHT22;2751;49.802;9.944;2022-11-15T09:24:54;9.50;99.90
5457;DHT22;2751;49.802;9.944;2022-11-15T09:27:20;9.60;99.90
5457;DHT22;2751;49.802;9.944;2022-11-15T09:29:49;9.70;99.90
5457;DHT22;2751;49.802;9.944;2022-11-15T09:32:16;9.70;99.90
5457;DHT22;2751;49.802;9.944;2022-11-15T09:34:42;9.80;99.90
5457;DHT22;2751;49.802;9.944;2022-11-15T09:37:09;9.80;99.90
5457;DHT22;2751;49.802;9.944;2022-11-15T09:39:36;9.90;99.90
5457;DHT22;2751;49.802;9.944;2022-11-15T09:42:14;10.10;99.90
5457;DHT22;2751;49.802;9.944;2022-11-15T09:44:58;10.30;99.90
5457;DHT22;2751;49.802;9.944;2022-11-15T09:48:00;10.50;99.90
5457;DHT22;2751;49.802;9.944;2022-11-15T09:50:34;10.90;99.90
5457;DHT22;2751;49.802;9.944;2022-11-15T09:53:03;11.00;99.90
5457;DHT22;2751;49.802;9.944;2022-11-15T09:55:43;11.10;99.90
5457;DHT22;2751;49.802;9.944;2022-11-15T09:58:19;10.90;99.90
5457;DHT22;2751;49.802;9.944;2022-11-15T10:00:51;11.20;99.90
5457;DHT22;2751;49.802;9.944;2022-11-15T10:03:23;11.20;99.90
5457;DHT22;2751;49.802;9.944;2022-11-15T10:05:55;11.80;99.90
5457;DHT22;2751;49.802;9.944;2022-11-15T10:08:31;11.60;99.90
5457;DHT22;2751;49.802;9.944;2022-11-15T10:11:02;11.90;99.90
5457;DHT22;2751;49.802;9.944;2022-11-15T10:13:32;12.30;99.90
5457;DHT22;2751;49.802;9.944;2022-11-15T10:16:05;12.60;99.90
5457;DHT22;2751;49.802;9.944;2022-11-15T10:18:44;13.00;99.90
5457;DHT22;2751;49.802;9.944;2022-11-15T10:21:17;13.40;99.90
5457;DHT22;2751;49.802;9.944;2022-11-15T10:23:44;13.60;99.90
5457;DHT22;2751;49.802;9.944;2022-11-15T10:26:15;13.90;99.90
5457;DHT22;2751;49.802;9.944;2022-11-15T10:28:43;14.20;99.90
5457;DHT22;2751;49.802;9.944;2022-11-15T10:31:24;14.30;99.90
5457;DHT22;2751;49.802;9.944;2022-11-15T10:33:51;14.50;99.90
5457;DHT22;2751;49.802;9.944;2022-11-15T10:36:24;14.70;99.90
5457;DHT22;2751;49.802;9.944;2022-11-15T10:38:56;14.80;99.90
5457;DHT22;2751;49.802;9.944;2022-11-15T10:41:37;14.90;99.90
5457;DHT22;2751;49.802;9.944;2022-11-15T10:44:31;14.90;99.90
5457;DHT22;2751;49.802;9.944;2022-11-15T10:47:27;14.80;99.90
5457;DHT22;2751;49.802;9.944;2022-11-15T10:50:00;14.70;99.90
5457;DHT22;2751;49.802;9.944;2022-11-15T10:52:28;15.00;99.90
5457;DHT22;2751;49.802;9.944;2022-11-15T10:55:00;15.00;99.90
5457;DHT22;2751;49.802;9.944;2022-11-15T10:57:31;15.10;99.90
5457;DHT22;2751;49.802;9.944;2022-11-15T11:00:02;15.30;99.90
5457;DHT22;2751;49.802;9.944;2022-11-15T11:02:36;15.50;99.90
5457;DHT22;2751;49.802;9.944;2022-11-15T11:05:05;15.70;99.90
5457;DHT22;2751;49.802;9.944;2022-11-15T11:07:34;15.70;99.90
5457;DHT22;2751;49.802;9.944;2022-11-15T11:10:05;15.80;99.90
5457;DHT22;2751;49.802;9.944;2022-11-15T11:12:34;15.70;99.90
5457;DHT22;2751;49.802;9.944;2022-11-15T11:15:09;15.70;99.90
5457;DHT22;2751;49.802;9.944;2022-11-15T11:17:53;15.80;99.90
5457;DHT22;2751;49.802;9.944;2022-11-15T11:20:28;15.90;99.90
5457;DHT22;2751;49.802;9.944;2022-11-15T11:23:06;16.00;99.90
5457;DHT22;2751;49.802;9.944;2022-11-15T11:25:42;16.20;99.90
5457;DHT22;2751;49.802;9.944;2022-11-15T11:28:30;15.90;99.90
5457;DHT22;2751;49.802;9.944;2022-11-15T11:31:20;15.90;99.90
5457;DHT22;2751;49.802;9.944;2022-11-15T11:33:57;15.90;99.90
5457;DHT22;2751;49.802;9.944;2022-11-15T11:36:30;16.10;99.90
5457;DHT22;2751;49.802;9.944;2022-11-15T11:39:14;16.20;99.90
5457;DHT22;2751;49.802;9.944;2022-11-15T11:41:50;16.30;99.90
5457;DHT22;2751;49.802;9.944;2022-11-15T11:44:31;16.40;99.90
5457;DHT22;2751;49.802;9.944;2022-11-15T11:47:00;16.40;99.90
5457;DHT22;2751;49.802;9.944;2022-11-15T11:49:35;16.40;99.90
5457;DHT22;2751;49.802;9.944;2022-11-15T11:52:10;16.50;99.90
5457;DHT22;2751;49.802;9.944;2022-11-15T11:54:47;16.40;99.90
5457;DHT22;2751;49.802;9.944;2022-11-15T11:57:25;16.10;99.90
5457;DHT22;2751;49.802;9.944;2022-11-15T12:00:00;15.90;99.90
5457;DHT22;2751;49.802;9.944;2022-11-15T12:02:30;15.80;99.90
5457;DHT22;2751;49.802;9.944;2022-11-15T12:05:04;15.90;99.90
5457;DHT22;2751;49.802;9.944;2022-11-15T12:07:35;15.90;99.90
5457;DHT22;2751;49.802;9.944;2022-11-15T12:10:05;15.90;99.90
5457;DHT22;2751;49.802;9.944;2022-11-15T12:12:47;16.00;99.90
5457;DHT22;2751;49.802;9.944;2022-11-15T12:15:18;15.80;99.90
5457;DHT22;2751;49.802;9.944;2022-11-15T12:17:46;15.80;99.90
5457;DHT22;2751;49.802;9.944;2022-11-15T12:20:18;15.80;99.90
5457;DHT22;2751;49.802;9.944;2022-11-15T12:22:52;15.80;99.90
5457;DHT22;2751;49.802;9.944;2022-11-15T12:25:22;15.80;99.90
5457;DHT22;2751;49.802;9.944;2022-11-15T12:27:54;15.90;99.90
5457;DHT22;2751;49.802;9.944;2022-11-15T12:30:23;16.00;99.90
5457;DHT22;2751;49.802;9.944;2022-11-15T12:32:54;16.00;99.90
5457;DHT22;2751;49.802;9.944;2022-11-15T12:35:27;16.00;99.90
5457;DHT22;2751;49.802;9.944;2022-11-15T12:37:56;15.90;99.90
5457;DHT22;2751;49.802;9.944;2022-11-15T12:40:32;16.00;99.90
5457;DHT22;2751;49.802;9.944;2022-11-15T12:45:46;16.00;99.90
5457;DHT22;2751;49.802;9.944;2022-11-15T12:48:48;16.00;99.90
5457;DHT22;2751;49.802;9.944;2022-11-15T12:51:18;15.90;99.90
5457;DHT22;2751;49.802;9.944;2022-11-15T12:53:46;15.80;99.90
5457;DHT22;2751;49.802;9.944;2022-11-15T12:56:23;15.80;99.90
5457;DHT22;2751;49.802;9.944;2022-11-15T12:58:53;15.70;99.90
5457;DHT22;2751;49.802;9.944;2022-11-15T13:01:54;15.60;99.90
5457;DHT22;2751;49.802;9.944;2022-11-15T13:04:24;15.50;99.90
5457;DHT22;2751;49.802;9.944;2022-11-15T13:06:56;15.70;99.90
5457;DHT22;2751;49.802;9.944;2022-11-15T13:12:52;15.70;99.90
5457;DHT22;2751;49.802;9.944;2022-11-15T13:15:54;15.70;99.90
5457;DHT22;2751;49.802;9.944;2022-11-15T13:18:34;15.70;99.90
5457;DHT22;2751;49.802;9.944;2022-11-15T13:21:04;15.80;99.90
5457;DHT22;2751;49.802;9.944;2022-11-15T13:23:55;15.80;99.90
5457;DHT22;2751;49.802;9.944;2022-11-15T13:26:22;15.90;99.90
5457;DHT22;2751;49.802;9.944;2022-11-15T13:28:51;15.90;99.90
5457;DHT22;2751;49.802;9.944;2022-11-15T13:31:25;16.00;99.90
5457;DHT22;2751;49.802;9.944;2022-11-15T13:33:56;15.90;99.90
5457;DHT22;2751;49.802;9.944;2022-11-15T13:36:27;15.90;99.90
5457;DHT22;2751;49.802;9.944;2022-11-15T13:38:58;15.80;99.90
5457;DHT22;2751;49.802;9.944;2022-11-15T13:41:28;15.70;99.90
5457;DHT22;2751;49.802;9.944;2022-11-15T13:43:55;15.80;99.90
5457;DHT22;2751;49.802;9.944;2022-11-15T13:46:24;15.80;99.90
5457;DHT22;2751;49.802;9.944;2022-11-15T13:48:56;15.70;99.90
5457;DHT22;2751;49.802;9.944;2022-11-15T13:51:36;15.60;99.90
5457;DHT22;2751;49.802;9.944;2022-11-15T13:54:12;15.60;99.90
5457;DHT22;2751;49.802;9.944;2022-11-15T13:56:43;15.50;99.90
5457;DHT22;2751;49.802;9.944;2022-11-15T13:59:15;15.40;99.90
5457;DHT22;2751;49.802;9.944;2022-11-15T14:01:44;15.30;99.90
5457;DHT22;2751;49.802;9.944;2022-11-15T14:04:13;15.20;99.90
5457;DHT22;2751;49.802;9.944;2022-11-15T14:06:45;15.20;99.90
5457;DHT22;2751;49.802;9.944;2022-11-15T14:09:33;15.20;99.90
5457;DHT22;2751;49.802;9.944;2022-11-15T14:12:02;15.20;99.90
5457;DHT22;2751;49.802;9.944;2022-11-15T14:14:30;15.30;99.90
5457;DHT22;2751;49.802;9.944;2022-11-15T14:16:58;15.30;99.90
5457;DHT22;2751;49.802;9.944;2022-11-15T14:19:37;15.30;99.90
5457;DHT22;2751;49.802;9.944;2022-11-15T14:22:19;15.40;99.90
5457;DHT22;2751;49.802;9.944;2022-11-15T14:25:20;15.40;99.90
5457;DHT22;2751;49.802;9.944;2022-11-15T14:28:09;15.30;99.90
5457;DHT22;2751;49.802;9.944;2022-11-15T14:30:36;15.30;99.90
5457;DHT22;2751;49.802;9.944;2022-11-15T14:33:18;15.20;99.90
5457;DHT22;2751;49.802;9.944;2022-11-15T14:35:47;15.10;99.90
5457;DHT22;2751;49.802;9.944;2022-11-15T14:38:14;14.90;99.90
5457;DHT22;2751;49.802;9.944;2022-11-15T14:40:42;14.90;99.90
5457;DHT22;2751;49.802;9.944;2022-11-15T14:43:10;14.80;99.90
5457;DHT22;2751;49.802;9.944;2022-11-15T14:45:38;14.70;99.90
5457;DHT22;2751;49.802;9.944;2022-11-15T14:48:05;14.50;99.90
5457;DHT22;2751;49.802;9.944;2022-11-15T14:50:32;14.50;99.90
5457;DHT22;2751;49.802;9.944;2022-11-15T14:53:00;14.40;99.90
5457;DHT22;2751;49.802;9.944;2022-11-15T14:55:29;14.30;99.90
5457;DHT22;2751;49.802;9.944;2022-11-15T14:57:58;14.20;99.90
5457;DHT22;2751;49.802;9.944;2022-11-15T15:00:27;14.20;99.90
5457;DHT22;2751;49.802;9.944;2022-11-15T15:02:54;14.20;99.90
5457;DHT22;2751;49.802;9.944;2022-11-15T15:05:23;14.10;99.90
5457;DHT22;2751;49.802;9.944;2022-11-15T15:07:51;14.00;99.90
5457;DHT22;2751;49.802;9.944;2022-11-15T15:10:18;14.00;99.90
5457;DHT22;2751;49.802;9.944;2022-11-15T15:12:46;13.90;99.90
5457;DHT22;2751;49.802;9.944;2022-11-15T15:15:16;13.80;99.90
5457;DHT22;2751;49.802;9.944;2022-11-15T15:17:43;13.80;99.90
5457;DHT22;2751;49.802;9.944;2022-11-15T15:20:10;13.70;99.90
5457;DHT22;2751;49.802;9.944;2022-11-15T15:22:37;13.70;99.90
5457;DHT22;2751;49.802;9.944;2022-11-15T15:25:20;13.60;99.90
5457;DHT22;2751;49.802;9.944;2022-11-15T15:27:47;13.60;99.90
5457;DHT22;2751;49.802;9.944;2022-11-15T15:30:16;13.60;99.90
5457;DHT22;2751;49.802;9.944;2022-11-15T15:32:43;13.50;99.90
5457;DHT22;2751;49.802;9.944;2022-11-15T15:35:12;13.50;99.90
5457;DHT22;2751;49.802;9.944;2022-11-15T15:37:40;13.50;99.90
5457;DHT22;2751;49.802;9.944;2022-11-15T15:40:14;13.50;99.90
5457;DHT22;2751;49.802;9.944;2022-11-15T15:42:41;13.40;99.90
5457;DHT22;2751;49.802;9.944;2022-11-15T15:45:09;13.40;99.90
5457;DHT22;2751;49.802;9.944;2022-11-15T15:47:38;13.40;99.90
5457;DHT22;2751;49.802;9.944;2022-11-15T15:50:14;13.30;99.90
5457;DHT22;2751;49.802;9.944;2022-11-15T15:52:44;13.30;99.90
5457;DHT22;2751;49.802;9.944;2022-11-15T15:55:11;13.30;99.90
5457;DHT22;2751;49.802;9.944;2022-11-15T15:57:37;13.20;99.90
5457;DHT22;2751;49.802;9.944;2022-11-15T16:00:07;13.20;99.90
5457;DHT22;2751;49.802;9.944;2022-11-15T16:02:34;13.20;99.90
5457;DHT22;2751;49.802;9.944;2022-11-15T16:05:02;13.20;99.90
5457;DHT22;2751;49.802;9.944;2022-11-15T16:07:29;13.20;99.90
5457;DHT22;2751;49.802;9.944;2022-11-15T16:09:56;13.10;99.90
5457;DHT22;2751;49.802;9.944;2022-11-15T16:12:30;13.10;99.90
5457;DHT22;2751;49.802;9.944;2022-11-15T16:14:57;13.10;99.90
5457;DHT22;2751;49.802;9.944;2022-11-15T16:17:26;13.10;99.90
5457;DHT22;2751;49.802;9.944;2022-11-15T16:19:53;13.10;99.90
5457;DHT22;2751;49.802;9.944;2022-11-15T16:22:21;13.10;99.90
5457;DHT22;2751;49.802;9.944;2022-11-15T16:24:48;13.10;99.90
5457;DHT22;2751;49.802;9.944;2022-11-15T16:27:16;13.10;99.90
5457;DHT22;2751;49.802;9.944;2022-11-15T16:29:44;13.00;99.90
5457;DHT22;2751;49.802;9.944;2022-11-15T16:32:11;13.00;99.90
5457;DHT22;2751;49.802;9.944;2022-11-15T16:34:38;13.00;99.90
5457;DHT22;2751;49.802;9.944;2022-11-15T16:37:08;13.00;99.90
5457;DHT22;2751;49.802;9.944;2022-11-15T16:39:39;13.00;99.90
5457;DHT22;2751;49.802;9.944;2022-11-15T16:42:06;13.00;99.90
5457;DHT22;2751;49.802;9.944;2022-11-15T16:44:33;12.90;99.90